7W6 weather

Hyde County Airport
Engelhard, North Carolina, United States

Public forecast

Using degrees Fahrenheit for public forecast. Weather courtesy of forecast.io.

METAR (pilot weather report)

Retrieved 2019/02/16 23:00 UTC (12 minutes ago):

K7W6 162300Z AUTO 01013G16KT 7SM OVC007 04/03 A2986 RMK AO2 T00400029

TAF (pilot weather forecast)

Closest forecast is Elizabeth City Regional Airport & Coast Guard Air Station, 43.3 nm (80.1 km) NNW. Retrieved 2019/02/16 18:42 UTC (4 hours ago):

TAF TAF KECG 161739Z 1618/1718 01014KT 4SM -RA BR OVC025 TEMPO 1619/1621 BKN009 FM170100 01008KT P6SM OVC035 FM170400 01008KT P6SM SCT050 FM171400 05007KT P6SM SCT050 BKN150